< < Back
Terminal Aerodrome Forecast


Current Version              Previous Versions:   1  2  3  4  5  6  7  8  9  

Terminal Aerodrome Forecast

800
FTUS42 KCHS 241700
TAFSAV
TAF
KSAV 241731Z 2418/2518 VRB03KT P6SM SCT250
     FM251400 34006KT P6SM SKC=

Latest METAR

358
SAUS80 KWBC 251300 RRA
MTRSAV
METAR KSAV 251253Z 32003KT 10SM CLR 13/09 A3004 RMK AO2 SLP170
T01280094


USA.gov is the U.S. government's official web portal to all federal, state and local government web resources and services.